sensor_id;sensor_type;location;lat;lon;timestamp;P1;durP1;ratioP1;P2;durP2;ratioP2
9392;SDS011;4736;52.508;13.422;2023-05-07T00:01:55;17.87;;;16.17;;
9392;SDS011;4736;52.508;13.422;2023-05-07T00:04:58;15.20;;;13.87;;
9392;SDS011;4736;52.508;13.422;2023-05-07T00:08:02;17.23;;;15.57;;
9392;SDS011;4736;52.508;13.422;2023-05-07T00:11:06;15.13;;;13.70;;
9392;SDS011;4736;52.508;13.422;2023-05-07T00:14:09;15.23;;;13.83;;
9392;SDS011;4736;52.508;13.422;2023-05-07T00:17:14;16.20;;;14.70;;
9392;SDS011;4736;52.508;13.422;2023-05-07T00:20:17;16.20;;;14.73;;
9392;SDS011;4736;52.508;13.422;2023-05-07T00:23:21;14.73;;;13.30;;
9392;SDS011;4736;52.508;13.422;2023-05-07T00:26:25;13.87;;;12.63;;
9392;SDS011;4736;52.508;13.422;2023-05-07T00:29:28;14.73;;;13.47;;
9392;SDS011;4736;52.508;13.422;2023-05-07T00:32:31;15.47;;;13.93;;
9392;SDS011;4736;52.508;13.422;2023-05-07T00:35:36;16.50;;;14.97;;
9392;SDS011;4736;52.508;13.422;2023-05-07T00:38:40;15.13;;;13.83;;
9392;SDS011;4736;52.508;13.422;2023-05-07T00:41:49;13.83;;;12.73;;
9392;SDS011;4736;52.508;13.422;2023-05-07T00:44:52;14.43;;;13.30;;
9392;SDS011;4736;52.508;13.422;2023-05-07T00:47:57;14.97;;;13.77;;
9392;SDS011;4736;52.508;13.422;2023-05-07T00:51:02;14.03;;;12.97;;
9392;SDS011;4736;52.508;13.422;2023-05-07T00:54:05;14.53;;;13.27;;
9392;SDS011;4736;52.508;13.422;2023-05-07T00:57:10;14.90;;;13.73;;
9392;SDS011;4736;52.508;13.422;2023-05-07T01:00:13;14.80;;;13.43;;
9392;SDS011;4736;52.508;13.422;2023-05-07T01:03:17;15.60;;;14.20;;
9392;SDS011;4736;52.508;13.422;2023-05-07T01:06:20;14.80;;;13.60;;
9392;SDS011;4736;52.508;13.422;2023-05-07T01:09:26;13.73;;;12.60;;
9392;SDS011;4736;52.508;13.422;2023-05-07T01:12:32;14.53;;;13.33;;
9392;SDS011;4736;52.508;13.422;2023-05-07T01:15:35;14.13;;;12.77;;
9392;SDS011;4736;52.508;13.422;2023-05-07T01:18:39;15.80;;;14.43;;
9392;SDS011;4736;52.508;13.422;2023-05-07T01:21:43;15.23;;;13.70;;
9392;SDS011;4736;52.508;13.422;2023-05-07T01:24:50;15.93;;;14.53;;
9392;SDS011;4736;52.508;13.422;2023-05-07T01:27:53;16.27;;;14.70;;
9392;SDS011;4736;52.508;13.422;2023-05-07T01:30:58;14.00;;;12.90;;
9392;SDS011;4736;52.508;13.422;2023-05-07T01:34:05;15.43;;;14.07;;
9392;SDS011;4736;52.508;13.422;2023-05-07T01:37:11;14.67;;;13.47;;
9392;SDS011;4736;52.508;13.422;2023-05-07T01:40:16;13.90;;;12.70;;
9392;SDS011;4736;52.508;13.422;2023-05-07T01:43:20;14.03;;;12.83;;
9392;SDS011;4736;52.508;13.422;2023-05-07T01:46:23;14.50;;;13.30;;
9392;SDS011;4736;52.508;13.422;2023-05-07T01:49:28;13.97;;;12.87;;
9392;SDS011;4736;52.508;13.422;2023-05-07T01:52:32;14.27;;;13.17;;
9392;SDS011;4736;52.508;13.422;2023-05-07T01:55:36;14.30;;;12.80;;
9392;SDS011;4736;52.508;13.422;2023-05-07T01:58:39;13.43;;;12.43;;
9392;SDS011;4736;52.508;13.422;2023-05-07T02:01:42;13.53;;;12.30;;
9392;SDS011;4736;52.508;13.422;2023-05-07T02:04:46;14.13;;;12.83;;
9392;SDS011;4736;52.508;13.422;2023-05-07T02:07:49;13.50;;;12.33;;
9392;SDS011;4736;52.508;13.422;2023-05-07T02:10:53;14.10;;;12.97;;
9392;SDS011;4736;52.508;13.422;2023-05-07T02:13:56;12.93;;;12.03;;
9392;SDS011;4736;52.508;13.422;2023-05-07T02:16:59;13.43;;;12.43;;
9392;SDS011;4736;52.508;13.422;2023-05-07T02:20:02;15.30;;;13.97;;
9392;SDS011;4736;52.508;13.422;2023-05-07T02:23:06;14.70;;;13.20;;
9392;SDS011;4736;52.508;13.422;2023-05-07T02:26:10;15.13;;;13.63;;
9392;SDS011;4736;52.508;13.422;2023-05-07T02:29:13;14.13;;;12.93;;
9392;SDS011;4736;52.508;13.422;2023-05-07T02:32:16;14.20;;;13.00;;
9392;SDS011;4736;52.508;13.422;2023-05-07T02:35:19;15.43;;;14.13;;
9392;SDS011;4736;52.508;13.422;2023-05-07T02:38:22;15.30;;;14.00;;
9392;SDS011;4736;52.508;13.422;2023-05-07T02:41:26;15.63;;;14.30;;
9392;SDS011;4736;52.508;13.422;2023-05-07T02:44:31;15.23;;;13.93;;
9392;SDS011;4736;52.508;13.422;2023-05-07T02:47:36;15.20;;;13.73;;
9392;SDS011;4736;52.508;13.422;2023-05-07T02:50:39;15.13;;;13.90;;
9392;SDS011;4736;52.508;13.422;2023-05-07T02:53:44;14.40;;;13.10;;
9392;SDS011;4736;52.508;13.422;2023-05-07T02:56:49;14.23;;;13.13;;
9392;SDS011;4736;52.508;13.422;2023-05-07T02:59:52;13.97;;;12.80;;
9392;SDS011;4736;52.508;13.422;2023-05-07T03:02:55;14.10;;;12.97;;
9392;SDS011;4736;52.508;13.422;2023-05-07T03:05:58;13.47;;;12.37;;
9392;SDS011;4736;52.508;13.422;2023-05-07T03:09:01;14.53;;;13.27;;
9392;SDS011;4736;52.508;13.422;2023-05-07T03:12:05;13.60;;;12.50;;
9392;SDS011;4736;52.508;13.422;2023-05-07T03:15:09;12.77;;;11.77;;
9392;SDS011;4736;52.508;13.422;2023-05-07T03:18:14;13.80;;;12.70;;
9392;SDS011;4736;52.508;13.422;2023-05-07T03:21:17;13.27;;;12.27;;
9392;SDS011;4736;52.508;13.422;2023-05-07T03:24:20;13.60;;;12.50;;
9392;SDS011;4736;52.508;13.422;2023-05-07T03:27:24;13.63;;;12.57;;
9392;SDS011;4736;52.508;13.422;2023-05-07T03:30:28;12.83;;;11.77;;
9392;SDS011;4736;52.508;13.422;2023-05-07T03:33:32;13.33;;;12.33;;
9392;SDS011;4736;52.508;13.422;2023-05-07T03:36:35;13.50;;;12.27;;
9392;SDS011;4736;52.508;13.422;2023-05-07T03:39:38;13.83;;;12.73;;
9392;SDS011;4736;52.508;13.422;2023-05-07T03:42:43;14.43;;;13.17;;
9392;SDS011;4736;52.508;13.422;2023-05-07T03:45:46;13.67;;;12.33;;
9392;SDS011;4736;52.508;13.422;2023-05-07T03:48:49;14.37;;;12.97;;
9392;SDS011;4736;52.508;13.422;2023-05-07T03:51:52;13.20;;;12.13;;
9392;SDS011;4736;52.508;13.422;2023-05-07T03:54:55;14.17;;;12.90;;
9392;SDS011;4736;52.508;13.422;2023-05-07T03:57:59;13.87;;;12.57;;
9392;SDS011;4736;52.508;13.422;2023-05-07T04:01:02;13.30;;;12.30;;
9392;SDS011;4736;52.508;13.422;2023-05-07T04:04:05;13.17;;;11.70;;
9392;SDS011;4736;52.508;13.422;2023-05-07T04:07:09;12.53;;;11.53;;
9392;SDS011;4736;52.508;13.422;2023-05-07T04:10:12;13.73;;;12.60;;
9392;SDS011;4736;52.508;13.422;2023-05-07T04:13:17;13.40;;;12.10;;
9392;SDS011;4736;52.508;13.422;2023-05-07T04:16:20;13.40;;;12.33;;
9392;SDS011;4736;52.508;13.422;2023-05-07T04:19:23;13.30;;;12.20;;
9392;SDS011;4736;52.508;13.422;2023-05-07T04:22:26;12.67;;;11.60;;
9392;SDS011;4736;52.508;13.422;2023-05-07T04:25:29;12.50;;;11.27;;
9392;SDS011;4736;52.508;13.422;2023-05-07T04:28:34;13.10;;;12.00;;
9392;SDS011;4736;52.508;13.422;2023-05-07T04:31:37;12.80;;;11.70;;
9392;SDS011;4736;52.508;13.422;2023-05-07T04:34:40;11.57;;;10.77;;
9392;SDS011;4736;52.508;13.422;2023-05-07T04:37:43;11.93;;;11.03;;
9392;SDS011;4736;52.508;13.422;2023-05-07T04:40:46;11.80;;;10.80;;
9392;SDS011;4736;52.508;13.422;2023-05-07T04:43:51;11.33;;;10.57;;
9392;SDS011;4736;52.508;13.422;2023-05-07T04:46:54;11.93;;;11.00;;
9392;SDS011;4736;52.508;13.422;2023-05-07T04:49:57;10.57;;;9.73;;
9392;SDS011;4736;52.508;13.422;2023-05-07T04:53:00;10.90;;;10.00;;
9392;SDS011;4736;52.508;13.422;2023-05-07T04:56:04;10.27;;;9.57;;
9392;SDS011;4736;52.508;13.422;2023-05-07T04:59:08;10.43;;;9.60;;
9392;SDS011;4736;52.508;13.422;2023-05-07T05:02:11;10.37;;;9.33;;
9392;SDS011;4736;52.508;13.422;2023-05-07T05:05:14;9.87;;;9.17;;
9392;SDS011;4736;52.508;13.422;2023-05-07T05:08:18;9.17;;;8.57;;
9392;SDS011;4736;52.508;13.422;2023-05-07T05:11:21;9.03;;;8.57;;
9392;SDS011;4736;52.508;13.422;2023-05-07T05:14:25;10.33;;;9.43;;
9392;SDS011;4736;52.508;13.422;2023-05-07T05:17:28;10.00;;;9.30;;
9392;SDS011;4736;52.508;13.422;2023-05-07T05:20:31;9.90;;;9.30;;
9392;SDS011;4736;52.508;13.422;2023-05-07T05:23:34;10.13;;;9.33;;
9392;SDS011;4736;52.508;13.422;2023-05-07T05:26:37;10.93;;;10.03;;
9392;SDS011;4736;52.508;13.422;2023-05-07T05:29:42;10.07;;;9.47;;
9392;SDS011;4736;52.508;13.422;2023-05-07T05:32:44;11.73;;;10.53;;
9392;SDS011;4736;52.508;13.422;2023-05-07T05:35:47;10.70;;;9.80;;
9392;SDS011;4736;52.508;13.422;2023-05-07T05:38:51;9.73;;;9.03;;
9392;SDS011;4736;52.508;13.422;2023-05-07T05:41:54;9.63;;;8.93;;
9392;SDS011;4736;52.508;13.422;2023-05-07T05:44:58;9.57;;;8.77;;
9392;SDS011;4736;52.508;13.422;2023-05-07T05:48:02;10.47;;;9.67;;
9392;SDS011;4736;52.508;13.422;2023-05-07T05:51:05;9.77;;;9.00;;
9392;SDS011;4736;52.508;13.422;2023-05-07T05:54:08;9.73;;;9.03;;
9392;SDS011;4736;52.508;13.422;2023-05-07T05:57:11;9.93;;;9.33;;
9392;SDS011;4736;52.508;13.422;2023-05-07T06:00:16;10.27;;;9.43;;
9392;SDS011;4736;52.508;13.422;2023-05-07T06:03:19;10.27;;;9.50;;
9392;SDS011;4736;52.508;13.422;2023-05-07T06:06:22;9.93;;;9.13;;
9392;SDS011;4736;52.508;13.422;2023-05-07T06:09:25;9.70;;;9.00;;
9392;SDS011;4736;52.508;13.422;2023-05-07T06:12:28;10.10;;;9.40;;
9392;SDS011;4736;52.508;13.422;2023-05-07T06:15:33;10.07;;;9.27;;
9392;SDS011;4736;52.508;13.422;2023-05-07T06:18:36;11.30;;;10.30;;
9392;SDS011;4736;52.508;13.422;2023-05-07T06:21:39;10.67;;;9.77;;
9392;SDS011;4736;52.508;13.422;2023-05-07T06:24:42;10.43;;;9.67;;
9392;SDS011;4736;52.508;13.422;2023-05-07T06:27:45;9.07;;;8.27;;
9392;SDS011;4736;52.508;13.422;2023-05-07T06:30:50;10.43;;;9.60;;
9392;SDS011;4736;52.508;13.422;2023-05-07T06:33:52;9.73;;;9.07;;
9392;SDS011;4736;52.508;13.422;2023-05-07T06:36:56;9.03;;;8.43;;
9392;SDS011;4736;52.508;13.422;2023-05-07T06:39:59;9.43;;;8.73;;
9392;SDS011;4736;52.508;13.422;2023-05-07T06:43:02;8.77;;;8.27;;
9392;SDS011;4736;52.508;13.422;2023-05-07T06:46:07;9.00;;;8.40;;
9392;SDS011;4736;52.508;13.422;2023-05-07T06:49:10;9.10;;;8.40;;
9392;SDS011;4736;52.508;13.422;2023-05-07T06:52:13;9.07;;;8.50;;
9392;SDS011;4736;52.508;13.422;2023-05-07T06:55:16;9.07;;;8.37;;
9392;SDS011;4736;52.508;13.422;2023-05-07T06:58:20;8.90;;;8.13;;
9392;SDS011;4736;52.508;13.422;2023-05-07T07:01:24;9.00;;;8.20;;
9392;SDS011;4736;52.508;13.422;2023-05-07T07:04:27;7.80;;;7.33;;
9392;SDS011;4736;52.508;13.422;2023-05-07T07:07:31;7.90;;;7.40;;
9392;SDS011;4736;52.508;13.422;2023-05-07T07:10:34;7.37;;;6.97;;
9392;SDS011;4736;52.508;13.422;2023-05-07T07:13:38;9.00;;;8.13;;
9392;SDS011;4736;52.508;13.422;2023-05-07T07:16:43;8.23;;;7.73;;
9392;SDS011;4736;52.508;13.422;2023-05-07T07:19:47;8.03;;;7.53;;
9392;SDS011;4736;52.508;13.422;2023-05-07T07:22:50;7.20;;;6.80;;
9392;SDS011;4736;52.508;13.422;2023-05-07T07:25:53;7.33;;;6.80;;
9392;SDS011;4736;52.508;13.422;2023-05-07T07:28:56;6.50;;;6.20;;
9392;SDS011;4736;52.508;13.422;2023-05-07T07:32:01;7.03;;;6.73;;
9392;SDS011;4736;52.508;13.422;2023-05-07T07:35:05;7.27;;;6.77;;
9392;SDS011;4736;52.508;13.422;2023-05-07T07:38:09;6.80;;;6.40;;
9392;SDS011;4736;52.508;13.422;2023-05-07T07:41:12;6.00;;;5.70;;
9392;SDS011;4736;52.508;13.422;2023-05-07T07:44:15;6.00;;;5.80;;
9392;SDS011;4736;52.508;13.422;2023-05-07T07:47:20;5.73;;;5.53;;
9392;SDS011;4736;52.508;13.422;2023-05-07T07:50:23;6.37;;;6.07;;
9392;SDS011;4736;52.508;13.422;2023-05-07T07:53:32;6.10;;;5.80;;
9392;SDS011;4736;52.508;13.422;2023-05-07T07:56:35;6.23;;;5.93;;
9392;SDS011;4736;52.508;13.422;2023-05-07T07:59:38;6.70;;;6.17;;
9392;SDS011;4736;52.508;13.422;2023-05-07T08:02:44;6.23;;;5.93;;
9392;SDS011;4736;52.508;13.422;2023-05-07T08:05:48;6.43;;;5.87;;
9392;SDS011;4736;52.508;13.422;2023-05-07T08:08:52;5.83;;;5.33;;
9392;SDS011;4736;52.508;13.422;2023-05-07T08:11:55;5.90;;;5.60;;
9392;SDS011;4736;52.508;13.422;2023-05-07T08:14:58;4.90;;;4.70;;
9392;SDS011;4736;52.508;13.422;2023-05-07T08:18:03;5.37;;;5.07;;
9392;SDS011;4736;52.508;13.422;2023-05-07T08:21:06;5.50;;;5.20;;
9392;SDS011;4736;52.508;13.422;2023-05-07T08:24:09;4.60;;;4.40;;
9392;SDS011;4736;52.508;13.422;2023-05-07T08:27:12;4.87;;;4.67;;
9392;SDS011;4736;52.508;13.422;2023-05-07T08:30:15;5.60;;;5.30;;
9392;SDS011;4736;52.508;13.422;2023-05-07T08:33:20;5.67;;;5.37;;
9392;SDS011;4736;52.508;13.422;2023-05-07T08:36:23;4.97;;;4.67;;
9392;SDS011;4736;52.508;13.422;2023-05-07T08:39:26;5.47;;;5.17;;
9392;SDS011;4736;52.508;13.422;2023-05-07T08:42:29;4.80;;;4.60;;
9392;SDS011;4736;52.508;13.422;2023-05-07T08:45:37;4.67;;;4.47;;
9392;SDS011;4736;52.508;13.422;2023-05-07T08:48:43;5.03;;;4.83;;
9392;SDS011;4736;52.508;13.422;2023-05-07T08:51:47;5.23;;;4.70;;
9392;SDS011;4736;52.508;13.422;2023-05-07T08:54:50;5.00;;;4.80;;
9392;SDS011;4736;52.508;13.422;2023-05-07T08:57:53;4.53;;;4.40;;
9392;SDS011;4736;52.508;13.422;2023-05-07T09:00:56;4.30;;;4.20;;
9392;SDS011;4736;52.508;13.422;2023-05-07T09:04:01;5.10;;;4.80;;
9392;SDS011;4736;52.508;13.422;2023-05-07T09:07:04;4.57;;;4.37;;
9392;SDS011;4736;52.508;13.422;2023-05-07T09:10:07;4.33;;;4.13;;
9392;SDS011;4736;52.508;13.422;2023-05-07T09:13:11;4.60;;;4.40;;
9392;SDS011;4736;52.508;13.422;2023-05-07T09:16:15;5.00;;;4.80;;
9392;SDS011;4736;52.508;13.422;2023-05-07T09:19:23;4.90;;;4.60;;
9392;SDS011;4736;52.508;13.422;2023-05-07T09:22:27;5.30;;;4.73;;
9392;SDS011;4736;52.508;13.422;2023-05-07T09:25:30;4.73;;;4.50;;
9392;SDS011;4736;52.508;13.422;2023-05-07T09:28:34;4.80;;;4.60;;
9392;SDS011;4736;52.508;13.422;2023-05-07T09:31:39;4.23;;;4.13;;
9392;SDS011;4736;52.508;13.422;2023-05-07T09:34:44;4.57;;;4.37;;
9392;SDS011;4736;52.508;13.422;2023-05-07T09:37:48;4.37;;;4.17;;
9392;SDS011;4736;52.508;13.422;2023-05-07T09:41:01;4.57;;;4.40;;
9392;SDS011;4736;52.508;13.422;2023-05-07T09:44:05;4.73;;;4.60;;
9392;SDS011;4736;52.508;13.422;2023-05-07T09:47:10;4.80;;;4.30;;
9392;SDS011;4736;52.508;13.422;2023-05-07T09:50:19;4.40;;;4.20;;
9392;SDS011;4736;52.508;13.422;2023-05-07T09:53:23;4.43;;;4.03;;
9392;SDS011;4736;52.508;13.422;2023-05-07T09:56:27;4.33;;;4.10;;
9392;SDS011;4736;52.508;13.422;2023-05-07T09:59:32;4.00;;;3.90;;
9392;SDS011;4736;52.508;13.422;2023-05-07T10:02:36;4.07;;;3.87;;
9392;SDS011;4736;52.508;13.422;2023-05-07T10:05:49;3.20;;;3.10;;
9392;SDS011;4736;52.508;13.422;2023-05-07T10:08:52;3.33;;;3.23;;
9392;SDS011;4736;52.508;13.422;2023-05-07T10:11:58;3.37;;;3.20;;
9392;SDS011;4736;52.508;13.422;2023-05-07T10:15:01;3.63;;;3.47;;
9392;SDS011;4736;52.508;13.422;2023-05-07T10:18:05;3.53;;;3.40;;
9392;SDS011;4736;52.508;13.422;2023-05-07T10:21:14;3.10;;;3.10;;
9392;SDS011;4736;52.508;13.422;2023-05-07T10:24:20;3.40;;;3.30;;
9392;SDS011;4736;52.508;13.422;2023-05-07T10:27:28;3.13;;;2.90;;
9392;SDS011;4736;52.508;13.422;2023-05-07T10:30:33;3.10;;;3.00;;
9392;SDS011;4736;52.508;13.422;2023-05-07T10:33:42;3.17;;;2.80;;
9392;SDS011;4736;52.508;13.422;2023-05-07T10:36:50;2.93;;;2.83;;
9392;SDS011;4736;52.508;13.422;2023-05-07T10:39:54;3.13;;;2.97;;
9392;SDS011;4736;52.508;13.422;2023-05-07T10:42:59;5.30;;;2.80;;
9392;SDS011;4736;52.508;13.422;2023-05-07T10:46:11;2.77;;;2.70;;
9392;SDS011;4736;52.508;13.422;2023-05-07T10:49:16;2.90;;;2.80;;
9392;SDS011;4736;52.508;13.422;2023-05-07T10:52:23;2.80;;;2.50;;
9392;SDS011;4736;52.508;13.422;2023-05-07T10:55:27;2.80;;;2.80;;
9392;SDS011;4736;52.508;13.422;2023-05-07T10:58:31;2.70;;;2.60;;
9392;SDS011;4736;52.508;13.422;2023-05-07T11:01:52;3.00;;;2.90;;
9392;SDS011;4736;52.508;13.422;2023-05-07T11:08:25;2.87;;;2.77;;
9392;SDS011;4736;52.508;13.422;2023-05-07T11:11:50;3.13;;;3.03;;
9392;SDS011;4736;52.508;13.422;2023-05-07T11:14:53;2.60;;;2.53;;
9392;SDS011;4736;52.508;13.422;2023-05-07T11:17:58;2.70;;;2.60;;
9392;SDS011;4736;52.508;13.422;2023-05-07T11:21:02;2.87;;;2.77;;
9392;SDS011;4736;52.508;13.422;2023-05-07T11:24:05;2.93;;;2.80;;
9392;SDS011;4736;52.508;13.422;2023-05-07T11:27:11;3.23;;;3.03;;
9392;SDS011;4736;52.508;13.422;2023-05-07T11:30:16;3.70;;;3.10;;
9392;SDS011;4736;52.508;13.422;2023-05-07T11:33:20;3.10;;;3.00;;
9392;SDS011;4736;52.508;13.422;2023-05-07T11:36:30;3.13;;;3.03;;
9392;SDS011;4736;52.508;13.422;2023-05-07T11:39:34;3.20;;;3.10;;
9392;SDS011;4736;52.508;13.422;2023-05-07T11:42:39;2.80;;;2.80;;
9392;SDS011;4736;52.508;13.422;2023-05-07T11:45:44;3.13;;;3.03;;
9392;SDS011;4736;52.508;13.422;2023-05-07T11:48:47;3.27;;;3.17;;
9392;SDS011;4736;52.508;13.422;2023-05-07T11:51:51;2.90;;;2.80;;
9392;SDS011;4736;52.508;13.422;2023-05-07T11:54:54;3.20;;;3.10;;
9392;SDS011;4736;52.508;13.422;2023-05-07T11:58:00;4.27;;;3.90;;
9392;SDS011;4736;52.508;13.422;2023-05-07T12:01:03;2.70;;;2.70;;
9392;SDS011;4736;52.508;13.422;2023-05-07T12:04:06;3.07;;;2.97;;
9392;SDS011;4736;52.508;13.422;2023-05-07T12:07:12;3.10;;;3.00;;
9392;SDS011;4736;52.508;13.422;2023-05-07T12:10:16;3.20;;;2.90;;
9392;SDS011;4736;52.508;13.422;2023-05-07T12:13:23;3.10;;;3.00;;
9392;SDS011;4736;52.508;13.422;2023-05-07T12:16:27;2.80;;;2.70;;
9392;SDS011;4736;52.508;13.422;2023-05-07T12:19:31;3.13;;;3.00;;
9392;SDS011;4736;52.508;13.422;2023-05-07T12:22:35;3.07;;;2.97;;
9392;SDS011;4736;52.508;13.422;2023-05-07T12:25:40;2.90;;;2.70;;
9392;SDS011;4736;52.508;13.422;2023-05-07T12:28:49;2.80;;;2.67;;
9392;SDS011;4736;52.508;13.422;2023-05-07T12:31:52;2.77;;;2.67;;
9392;SDS011;4736;52.508;13.422;2023-05-07T12:34:55;3.53;;;2.77;;
9392;SDS011;4736;52.508;13.422;2023-05-07T12:37:59;3.20;;;3.00;;
9392;SDS011;4736;52.508;13.422;2023-05-07T12:41:05;2.90;;;2.70;;
9392;SDS011;4736;52.508;13.422;2023-05-07T12:44:11;2.70;;;2.70;;
9392;SDS011;4736;52.508;13.422;2023-05-07T12:47:17;3.60;;;3.50;;
9392;SDS011;4736;52.508;13.422;2023-05-07T12:50:20;2.97;;;2.87;;
9392;SDS011;4736;52.508;13.422;2023-05-07T12:53:24;2.67;;;2.67;;
9392;SDS011;4736;52.508;13.422;2023-05-07T12:56:30;2.90;;;2.80;;
9392;SDS011;4736;52.508;13.422;2023-05-07T12:59:35;2.87;;;2.87;;
9392;SDS011;4736;52.508;13.422;2023-05-07T13:02:41;2.87;;;2.67;;
9392;SDS011;4736;52.508;13.422;2023-05-07T13:05:46;2.60;;;2.50;;
9392;SDS011;4736;52.508;13.422;2023-05-07T13:08:49;2.23;;;2.23;;
9392;SDS011;4736;52.508;13.422;2023-05-07T13:11:52;3.77;;;2.50;;
9392;SDS011;4736;52.508;13.422;2023-05-07T13:14:57;2.43;;;2.40;;
9392;SDS011;4736;52.508;13.422;2023-05-07T13:18:00;2.70;;;2.70;;
9392;SDS011;4736;52.508;13.422;2023-05-07T13:21:03;2.23;;;2.10;;
9392;SDS011;4736;52.508;13.422;2023-05-07T13:24:07;2.40;;;2.40;;
9392;SDS011;4736;52.508;13.422;2023-05-07T13:27:10;2.73;;;2.73;;
9392;SDS011;4736;52.508;13.422;2023-05-07T13:30:15;2.90;;;2.70;;
9392;SDS011;4736;52.508;13.422;2023-05-07T13:33:18;2.77;;;2.60;;
9392;SDS011;4736;52.508;13.422;2023-05-07T13:36:22;2.83;;;2.70;;
9392;SDS011;4736;52.508;13.422;2023-05-07T13:39:25;2.60;;;2.50;;
9392;SDS011;4736;52.508;13.422;2023-05-07T13:42:28;2.60;;;2.43;;
9392;SDS011;4736;52.508;13.422;2023-05-07T13:45:34;2.33;;;2.30;;
9392;SDS011;4736;52.508;13.422;2023-05-07T13:48:38;2.40;;;2.40;;
9392;SDS011;4736;52.508;13.422;2023-05-07T13:51:41;2.30;;;2.30;;
9392;SDS011;4736;52.508;13.422;2023-05-07T13:54:44;2.80;;;2.80;;
9392;SDS011;4736;52.508;13.422;2023-05-07T13:57:47;2.60;;;2.50;;
9392;SDS011;4736;52.508;13.422;2023-05-07T14:00:51;3.43;;;3.23;;
9392;SDS011;4736;52.508;13.422;2023-05-07T14:03:55;3.03;;;2.83;;
9392;SDS011;4736;52.508;13.422;2023-05-07T14:06:58;2.27;;;2.27;;
9392;SDS011;4736;52.508;13.422;2023-05-07T14:10:01;2.83;;;2.83;;
9392;SDS011;4736;52.508;13.422;2023-05-07T14:13:05;2.87;;;2.70;;
9392;SDS011;4736;52.508;13.422;2023-05-07T14:16:10;2.73;;;2.60;;
9392;SDS011;4736;52.508;13.422;2023-05-07T14:19:13;3.10;;;3.00;;
9392;SDS011;4736;52.508;13.422;2023-05-07T14:22:16;2.70;;;2.57;;
9392;SDS011;4736;52.508;13.422;2023-05-07T14:25:19;2.73;;;2.70;;
9392;SDS011;4736;52.508;13.422;2023-05-07T14:28:23;2.83;;;2.73;;
9392;SDS011;4736;52.508;13.422;2023-05-07T14:31:28;2.90;;;2.80;;
9392;SDS011;4736;52.508;13.422;2023-05-07T14:34:31;2.77;;;2.60;;
9392;SDS011;4736;52.508;13.422;2023-05-07T14:37:35;2.53;;;2.53;;
9392;SDS011;4736;52.508;13.422;2023-05-07T14:40:38;3.17;;;3.07;;
9392;SDS011;4736;52.508;13.422;2023-05-07T14:43:41;2.97;;;2.90;;
9392;SDS011;4736;52.508;13.422;2023-05-07T14:46:46;2.77;;;2.67;;
9392;SDS011;4736;52.508;13.422;2023-05-07T14:49:49;5.43;;;5.13;;
9392;SDS011;4736;52.508;13.422;2023-05-07T14:52:54;3.70;;;3.60;;
9392;SDS011;4736;52.508;13.422;2023-05-07T14:55:57;3.30;;;3.20;;
9392;SDS011;4736;52.508;13.422;2023-05-07T14:59:01;2.87;;;2.73;;
9392;SDS011;4736;52.508;13.422;2023-05-07T15:02:06;3.17;;;3.07;;
9392;SDS011;4736;52.508;13.422;2023-05-07T15:05:10;2.70;;;2.60;;
9392;SDS011;4736;52.508;13.422;2023-05-07T15:08:13;2.47;;;2.47;;
9392;SDS011;4736;52.508;13.422;2023-05-07T15:11:16;2.30;;;2.30;;
9392;SDS011;4736;52.508;13.422;2023-05-07T15:14:19;2.20;;;2.20;;
9392;SDS011;4736;52.508;13.422;2023-05-07T15:17:24;2.40;;;2.40;;
9392;SDS011;4736;52.508;13.422;2023-05-07T15:20:28;2.50;;;2.40;;
9392;SDS011;4736;52.508;13.422;2023-05-07T15:23:31;2.40;;;2.40;;
9392;SDS011;4736;52.508;13.422;2023-05-07T15:26:34;2.60;;;2.40;;
9392;SDS011;4736;52.508;13.422;2023-05-07T15:29:37;3.50;;;3.40;;
9392;SDS011;4736;52.508;13.422;2023-05-07T15:32:41;2.43;;;2.43;;
9392;SDS011;4736;52.508;13.422;2023-05-07T15:35:45;2.90;;;2.70;;
9392;SDS011;4736;52.508;13.422;2023-05-07T15:38:48;2.47;;;2.47;;
9392;SDS011;4736;52.508;13.422;2023-05-07T15:41:51;2.73;;;2.53;;
9392;SDS011;4736;52.508;13.422;2023-05-07T15:44:54;2.50;;;2.40;;
9392;SDS011;4736;52.508;13.422;2023-05-07T15:47:58;2.50;;;2.40;;
9392;SDS011;4736;52.508;13.422;2023-05-07T15:51:02;2.30;;;2.20;;
9392;SDS011;4736;52.508;13.422;2023-05-07T15:54:05;2.53;;;2.43;;
9392;SDS011;4736;52.508;13.422;2023-05-07T15:57:08;3.63;;;2.23;;
9392;SDS011;4736;52.508;13.422;2023-05-07T16:00:12;2.70;;;2.70;;
9392;SDS011;4736;52.508;13.422;2023-05-07T16:03:18;2.63;;;2.53;;
9392;SDS011;4736;52.508;13.422;2023-05-07T16:06:23;2.20;;;2.20;;
9392;SDS011;4736;52.508;13.422;2023-05-07T16:09:26;2.63;;;2.50;;
9392;SDS011;4736;52.508;13.422;2023-05-07T16:12:29;2.70;;;2.70;;
9392;SDS011;4736;52.508;13.422;2023-05-07T16:15:32;2.80;;;2.80;;
9392;SDS011;4736;52.508;13.422;2023-05-07T16:18:37;2.77;;;2.60;;
9392;SDS011;4736;52.508;13.422;2023-05-07T16:21:41;2.67;;;2.57;;
9392;SDS011;4736;52.508;13.422;2023-05-07T16:24:44;2.80;;;2.80;;
9392;SDS011;4736;52.508;13.422;2023-05-07T16:27:47;2.87;;;2.80;;
9392;SDS011;4736;52.508;13.422;2023-05-07T16:30:50;2.43;;;2.43;;
9392;SDS011;4736;52.508;13.422;2023-05-07T16:33:57;2.60;;;2.47;;
9392;SDS011;4736;52.508;13.422;2023-05-07T16:37:01;2.40;;;2.40;;
9392;SDS011;4736;52.508;13.422;2023-05-07T16:40:07;3.27;;;3.17;;
9392;SDS011;4736;52.508;13.422;2023-05-07T16:43:10;2.50;;;2.50;;
9392;SDS011;4736;52.508;13.422;2023-05-07T16:46:14;2.70;;;2.60;;
9392;SDS011;4736;52.508;13.422;2023-05-07T16:49:18;2.50;;;2.50;;
9392;SDS011;4736;52.508;13.422;2023-05-07T16:52:23;2.57;;;2.57;;
9392;SDS011;4736;52.508;13.422;2023-05-07T16:55:27;2.47;;;2.47;;
9392;SDS011;4736;52.508;13.422;2023-05-07T16:58:30;2.57;;;2.57;;
9392;SDS011;4736;52.508;13.422;2023-05-07T17:01:34;2.70;;;2.60;;
9392;SDS011;4736;52.508;13.422;2023-05-07T17:04:39;2.80;;;2.70;;
9392;SDS011;4736;52.508;13.422;2023-05-07T17:07:42;2.70;;;2.60;;
9392;SDS011;4736;52.508;13.422;2023-05-07T17:10:45;3.20;;;2.90;;
9392;SDS011;4736;52.508;13.422;2023-05-07T17:13:48;2.97;;;2.87;;
9392;SDS011;4736;52.508;13.422;2023-05-07T17:16:52;2.97;;;2.97;;
9392;SDS011;4736;52.508;13.422;2023-05-07T17:19:56;2.97;;;2.87;;
9392;SDS011;4736;52.508;13.422;2023-05-07T17:23:00;2.83;;;2.70;;
9392;SDS011;4736;52.508;13.422;2023-05-07T17:26:03;2.70;;;2.70;;
9392;SDS011;4736;52.508;13.422;2023-05-07T17:29:13;2.50;;;2.50;;
9392;SDS011;4736;52.508;13.422;2023-05-07T17:32:16;2.50;;;2.50;;
9392;SDS011;4736;52.508;13.422;2023-05-07T17:35:21;2.70;;;2.70;;
9392;SDS011;4736;52.508;13.422;2023-05-07T17:38:24;3.03;;;2.83;;
9392;SDS011;4736;52.508;13.422;2023-05-07T17:41:27;2.70;;;2.70;;
9392;SDS011;4736;52.508;13.422;2023-05-07T17:44:30;2.80;;;2.70;;
9392;SDS011;4736;52.508;13.422;2023-05-07T17:47:34;3.03;;;3.00;;
9392;SDS011;4736;52.508;13.422;2023-05-07T17:50:38;2.83;;;2.83;;
9392;SDS011;4736;52.508;13.422;2023-05-07T17:53:41;4.57;;;4.00;;
9392;SDS011;4736;52.508;13.422;2023-05-07T17:56:44;2.90;;;2.80;;
9392;SDS011;4736;52.508;13.422;2023-05-07T17:59:47;2.80;;;2.70;;
9392;SDS011;4736;52.508;13.422;2023-05-07T18:02:51;2.80;;;2.80;;
9392;SDS011;4736;52.508;13.422;2023-05-07T18:05:56;2.80;;;2.80;;
9392;SDS011;4736;52.508;13.422;2023-05-07T18:09:00;3.67;;;3.57;;
9392;SDS011;4736;52.508;13.422;2023-05-07T18:12:04;3.60;;;3.50;;
9392;SDS011;4736;52.508;13.422;2023-05-07T18:15:07;3.20;;;3.00;;
9392;SDS011;4736;52.508;13.422;2023-05-07T18:18:11;2.73;;;2.73;;
9392;SDS011;4736;52.508;13.422;2023-05-07T18:21:16;2.60;;;2.60;;
9392;SDS011;4736;52.508;13.422;2023-05-07T18:24:19;3.20;;;3.10;;
9392;SDS011;4736;52.508;13.422;2023-05-07T18:27:23;3.83;;;3.57;;
9392;SDS011;4736;52.508;13.422;2023-05-07T18:30:26;3.67;;;3.50;;
9392;SDS011;4736;52.508;13.422;2023-05-07T18:33:29;3.10;;;3.00;;
9392;SDS011;4736;52.508;13.422;2023-05-07T18:36:34;3.23;;;3.13;;
9392;SDS011;4736;52.508;13.422;2023-05-07T18:39:53;2.90;;;2.90;;